M/tug Gulf 2 — TCA2452 — position and weather

sailwx.info

Track history (hours):
 
Tides and Currents Weather Stations Pressure Air Temp Water Temp Dewpoint Dewpoint Depression Visibility Wind Speed Wind Dir Waves Ship Positions

M/tug Gulf 2

Last reported at 2016-Feb-03 16:21 UTC. Time now 2016-Feb-07 15:14 UTC.
Position N 40°51' E 029°03'.

Length 24 m; draft 3.7 m.

Type: Tug. MMSI: 271002438.

Date/timePositionNaut miles runAvg speedWind from/ knotsBaromVisibWave heightAir tempDewpointWater temp
2016-Feb-03 16:21N 40°51' E 029°03'5 4.8
2016-Feb-03 15:24N 40°56' E 029°01'4 0.3
2016-Feb-03 01:15N 40°59' E 028°60'1 1.7
2016-Feb-03 00:32N 40°58' E 028°60'1 1.3
2016-Feb-02 23:32N 40°57' E 028°60'4 3.9
2016-Feb-02 22:30N 40°53' E 029°01'5 4.8
2016-Feb-02 21:33N 40°49' E 029°05'5 4.7
2016-Feb-02 20:33N 40°48' E 029°11'5 4.7
2016-Feb-02 19:34N 40°46' E 029°16'5 4.5
2016-Feb-02 18:30N 40°45' E 029°22'5 4.6
2016-Feb-02 17:31N 40°43' E 029°28'0 0.1
2016-Feb-02 14:30N 40°43' E 029°27'7 7.6
2016-Feb-02 13:34N 40°46' E 029°19'5 5.4
2016-Feb-02 12:34N 40°51' E 029°17'1 0.5
2016-Feb-02 11:27N 40°51' E 029°17'0 0.0
2016-Feb-02 09:27N 40°51' E 029°17'0 0.0
2016-Feb-02 08:33N 40°51' E 029°17'0 0.0
2016-Feb-02 07:33N 40°51' E 029°17'0 0.0
2016-Feb-02 06:21N 40°51' E 029°17'0 0.0
2016-Feb-02 05:33N 40°51' E 029°17'0 0.0
2016-Feb-02 04:33N 40°51' E 029°17'0 0.0
2016-Feb-02 02:33N 40°51' E 029°17'0 0.0
2016-Feb-02 01:27N 40°51' E 029°17'0 0.0
2016-Feb-02 00:21N 40°51' E 029°17'0 0.0
2016-Feb-01 23:33N 40°51' E 029°17'0 0.0
2016-Feb-01 22:33N 40°51' E 029°17'0 0.0
2016-Feb-01 21:15N 40°51' E 029°17'0 0.0
2016-Feb-01 20:15N 40°51' E 029°17'0 0.0
2016-Feb-01 19:33N 40°51' E 029°17'0 0.0
2016-Feb-01 18:33N 40°51' E 029°17'0 0.0
2016-Feb-01 17:27N 40°51' E 029°17'0 0.0
2016-Feb-01 16:33N 40°51' E 029°17'0 0.0
2016-Feb-01 15:33N 40°51' E 029°17'0 0.0
2016-Feb-01 14:33N 40°51' E 029°17'0 0.0
2016-Feb-01 13:15N 40°51' E 029°17'0 0.0
2016-Feb-01 12:33N 40°51' E 029°17'0 0.0
2016-Feb-01 11:33N 40°51' E 029°17'0 0.0
2016-Feb-01 10:33N 40°51' E 029°17'0 0.0
2016-Feb-01 09:27N 40°51' E 029°17'0 0.0
2016-Feb-01 08:33N 40°51' E 029°17'0 0.0
2016-Feb-01 07:21N 40°51' E 029°17'0 0.0
2016-Feb-01 04:33N 40°51' E 029°17'0 0.0
2016-Feb-01 03:33N 40°51' E 029°17'0 0.0
2016-Feb-01 02:33N 40°51' E 029°17'0 0.0
2016-Feb-01 01:33N 40°51' E 029°17'0 0.0
2016-Feb-01 00:33N 40°51' E 029°17'0 0.0
2016-Jan-31 23:33N 40°51' E 029°17'0 0.0
2016-Jan-31 22:33N 40°51' E 029°17'0 0.0
2016-Jan-31 21:33N 40°51' E 029°17'0 0.0
2016-Jan-31 20:21N 40°51' E 029°17'0 0.0
2016-Jan-31 19:33N 40°51' E 029°17'0 0.0
2016-Jan-31 17:33N 40°51' E 029°17'0 0.0
2016-Jan-31 16:27N 40°51' E 029°17'0 0.0
2016-Jan-31 15:33N 40°51' E 029°17'0 0.0
2016-Jan-31 14:21N 40°51' E 029°17'0 0.0
2016-Jan-31 13:21N 40°51' E 029°17'0 0.0
2016-Jan-31 12:27N 40°51' E 029°17'0 0.0
2016-Jan-31 11:22N 40°51' E 029°17'0 0.0
2016-Jan-31 10:34N 40°51' E 029°17'0 0.0
2016-Jan-31 09:28N 40°51' E 029°17'0 0.0
2016-Jan-31 08:16N 40°51' E 029°17'0 0.0
2016-Jan-31 07:16N 40°51' E 029°17'0 0.0
2016-Jan-31 06:28N 40°51' E 029°17'0 0.0
2016-Jan-31 05:10N 40°51' E 029°17'0 0.0
2016-Jan-31 04:22N 40°51' E 029°17'0 0.0
2016-Jan-31 03:28N 40°51' E 029°17'0 0.0
2016-Jan-31 02:16N 40°51' E 029°17'0 0.0
2016-Jan-31 01:31N 40°51' E 029°17'0 0.0
2016-Jan-31 00:25N 40°51' E 029°17'0 0.0
2016-Jan-30 23:25N 40°51' E 029°17'0 0.0
2016-Jan-30 22:31N 40°51' E 029°17'0 0.0
2016-Jan-30 21:31N 40°51' E 029°17'0 0.0
2016-Jan-30 20:25N 40°51' E 029°17'0 0.0
2016-Jan-30 19:19N 40°51' E 029°17'0 0.0
2016-Jan-30 18:31N 40°51' E 029°17'0 0.0
2016-Jan-30 17:31N 40°51' E 029°17'0 0.0
2016-Jan-30 16:31N 40°51' E 029°17'0 0.0
2016-Jan-30 15:31N 40°51' E 029°17'0 0.0
2016-Jan-30 14:31N 40°51' E 029°17'0 0.0
2016-Jan-30 13:25N 40°51' E 029°17'0 0.0
2016-Jan-30 12:31N 40°51' E 029°17'0 0.0
2016-Jan-30 11:33N 40°51' E 029°17'0 0.0
2016-Jan-30 10:28N 40°51' E 029°17'0 0.0
2016-Jan-30 09:28N 40°51' E 029°17'0 0.0
2016-Jan-30 08:28N 40°51' E 029°17'0 0.0
2016-Jan-30 07:28N 40°51' E 029°17'0 0.0
2016-Jan-30 06:28N 40°51' E 029°17'0 0.0
2016-Jan-30 05:31N 40°51' E 029°17'0 0.0
2016-Jan-30 04:31N 40°51' E 029°17'0 0.0
2016-Jan-30 03:31N 40°51' E 029°17'0 0.0
2016-Jan-30 02:31N 40°51' E 029°17'0 0.0
2016-Jan-30 01:31N 40°51' E 029°17'0 0.0
2016-Jan-30 00:31N 40°51' E 029°17'3 3.4
2016-Jan-29 23:33N 40°48' E 029°15'8 8.3
2016-Jan-29 22:33N 40°44' E 029°24'3 2.8
2016-Jan-29 21:32N 40°43' E 029°27'4 4.2
2016-Jan-29 20:33N 40°43' E 029°22'4 3.8
2016-Jan-29 19:33N 40°44' E 029°17'5 4.4
2016-Jan-29 18:32N 40°46' E 029°12'4 4.2
2016-Jan-29 17:31N 40°48' E 029°06'4 4.2
2016-Jan-29 16:33N 40°51' E 029°03'5 4.6
2016-Jan-29 15:31N 40°55' E 028°60'3 0.3
2016-Jan-29 02:32N 40°58' E 028°60'2 1.8
2016-Jan-29 01:33N 40°57' E 028°60'2 1.8
2016-Jan-29 00:32N 40°55' E 029°00'3 3.5
2016-Jan-28 23:33N 40°52' E 029°02'4 3.9
2016-Jan-28 22:33N 40°49' E 029°06'4 4.5
2016-Jan-28 21:33N 40°47' E 029°11'5 4.5
2016-Jan-28 20:33N 40°45' E 029°17'4 4.4
2016-Jan-28 19:32N 40°44' E 029°22'4 4.1
2016-Jan-28 18:33N 40°43' E 029°27'1 0.5
2016-Jan-28 17:32N 40°43' E 029°28'0 0.0
2016-Jan-28 16:32N 40°43' E 029°28'6 6.2
2016-Jan-28 15:32N 40°45' E 029°20'6 6.6
2016-Jan-28 14:33N 40°50' E 029°15'2 1.7
2016-Jan-28 13:29N 40°51' E 029°17'0 0.0
2016-Jan-28 12:29N 40°51' E 029°17'0 0.0
2016-Jan-28 11:29N 40°51' E 029°17'0 0.0
2016-Jan-28 10:29N 40°51' E 029°17'0 0.0
2016-Jan-28 09:23N 40°51' E 029°17'0 0.0
2016-Jan-28 08:17N 40°51' E 029°17'0 0.0
2016-Jan-26 16:06N 40°51' E 029°17'0 0.0
2016-Jan-26 15:29N 40°51' E 029°17'0 0.0
2016-Jan-26 14:30N 40°51' E 029°17'0 0.0
2016-Jan-26 13:30N 40°51' E 029°17'0 0.0
2016-Jan-26 12:30N 40°51' E 029°17'0 0.0
2016-Jan-26 11:30N 40°51' E 029°17'0 0.0
2016-Jan-26 10:30N 40°51' E 029°17'0 0.0
2016-Jan-26 09:30N 40°51' E 029°17'0 0.0
2016-Jan-26 08:24N 40°51' E 029°17'0 0.0
2016-Jan-26 07:18N 40°51' E 029°17'0 0.0
2016-Jan-26 06:30N 40°51' E 029°17'0 0.0
2016-Jan-26 05:24N 40°51' E 029°17'0 0.0
2016-Jan-26 04:24N 40°51' E 029°17'0 0.0
2016-Jan-26 03:30N 40°51' E 029°17'0 0.0
2016-Jan-26 02:30N 40°51' E 029°17'0 0.0
2016-Jan-26 01:30N 40°51' E 029°17'0 0.0
2016-Jan-26 00:24N 40°51' E 029°17'0 0.0
2016-Jan-25 23:18N 40°51' E 029°17'0 0.0
2016-Jan-25 22:30N 40°51' E 029°17'0 0.0
2016-Jan-25 21:18N 40°51' E 029°17'0 0.0
2016-Jan-25 19:30N 40°51' E 029°17'0 0.0
2016-Jan-25 18:24N 40°51' E 029°17'0 0.0
2016-Jan-25 17:24N 40°51' E 029°17'0 0.0
2016-Jan-25 16:30N 40°51' E 029°17'0 0.0
2016-Jan-25 15:30N 40°51' E 029°17'0 0.0
2016-Jan-25 14:30N 40°51' E 029°17'0 0.0
2016-Jan-25 13:30N 40°51' E 029°17'0 0.0
2016-Jan-25 12:30N 40°51' E 029°17'0 0.0
2016-Jan-25 11:24N 40°51' E 029°17'0 0.0
2016-Jan-25 10:12N 40°51' E 029°17'0 0.0
2016-Jan-25 09:30N 40°51' E 029°17'0 0.0
2016-Jan-25 08:30N 40°51' E 029°17'0 0.0
2016-Jan-25 06:12N 40°51' E 029°17'0 0.0
2016-Jan-25 04:12N 40°51' E 029°17'0 0.0
2016-Jan-25 03:24N 40°51' E 029°17'0 0.0
2016-Jan-25 02:18N 40°51' E 029°17'0 0.0
2016-Jan-25 00:12N 40°51' E 029°17'0 0.0
2016-Jan-24 22:18N 40°51' E 029°17'0 0.0
2016-Jan-24 21:30N 40°51' E 029°17'0 0.0
2016-Jan-24 20:06N 40°51' E 029°17'0 0.0
2016-Jan-24 18:30N 40°51' E 029°17'0 0.0
2016-Jan-24 17:24N 40°51' E 029°17'0 0.0
2016-Jan-24 16:30N 40°51' E 029°17'  
Track history (hours):
 
Tides and Currents Weather Stations Pressure Air Temp Water Temp Dewpoint Dewpoint Depression Visibility Wind Speed Wind Dir Waves Ship Positions

M/tug Gulf 2

Last reported at 2016-Feb-03 16:21 UTC. Time now 2016-Feb-07 15:14 UTC.
Position N 40°51' E 029°03'.

Length 24 m; draft 3.7 m.

Type: Tug. MMSI: 271002438.

Date/timePositionNaut miles runAvg speedWind from/ knotsBaromVisibWave heightAir tempDewpointWater temp
2016-Feb-03 16:21N 40°51' E 029°03'5 4.8
2016-Feb-03 15:24N 40°56' E 029°01'4 0.3
2016-Feb-03 01:15N 40°59' E 028°60'1 1.7
2016-Feb-03 00:32N 40°58' E 028°60'1 1.3
2016-Feb-02 23:32N 40°57' E 028°60'4 3.9
2016-Feb-02 22:30N 40°53' E 029°01'5 4.8
2016-Feb-02 21:33N 40°49' E 029°05'5 4.7
2016-Feb-02 20:33N 40°48' E 029°11'5 4.7
2016-Feb-02 19:34N 40°46' E 029°16'5 4.5
2016-Feb-02 18:30N 40°45' E 029°22'5 4.6
2016-Feb-02 17:31N 40°43' E 029°28'0 0.1
2016-Feb-02 14:30N 40°43' E 029°27'7 7.6
2016-Feb-02 13:34N 40°46' E 029°19'5 5.4
2016-Feb-02 12:34N 40°51' E 029°17'1 0.5
2016-Feb-02 11:27N 40°51' E 029°17'0 0.0
2016-Feb-02 09:27N 40°51' E 029°17'0 0.0
2016-Feb-02 08:33N 40°51' E 029°17'0 0.0
2016-Feb-02 07:33N 40°51' E 029°17'0 0.0
2016-Feb-02 06:21N 40°51' E 029°17'0 0.0
2016-Feb-02 05:33N 40°51' E 029°17'0 0.0
2016-Feb-02 04:33N 40°51' E 029°17'0 0.0
2016-Feb-02 02:33N 40°51' E 029°17'0 0.0
2016-Feb-02 01:27N 40°51' E 029°17'0 0.0
2016-Feb-02 00:21N 40°51' E 029°17'0 0.0
2016-Feb-01 23:33N 40°51' E 029°17'0 0.0
2016-Feb-01 22:33N 40°51' E 029°17'0 0.0
2016-Feb-01 21:15N 40°51' E 029°17'0 0.0
2016-Feb-01 20:15N 40°51' E 029°17'0 0.0
2016-Feb-01 19:33N 40°51' E 029°17'0 0.0
2016-Feb-01 18:33N 40°51' E 029°17'0 0.0
2016-Feb-01 17:27N 40°51' E 029°17'0 0.0
2016-Feb-01 16:33N 40°51' E 029°17'0 0.0
2016-Feb-01 15:33N 40°51' E 029°17'0 0.0
2016-Feb-01 14:33N 40°51' E 029°17'0 0.0
2016-Feb-01 13:15N 40°51' E 029°17'0 0.0
2016-Feb-01 12:33N 40°51' E 029°17'0 0.0
2016-Feb-01 11:33N 40°51' E 029°17'0 0.0
2016-Feb-01 10:33N 40°51' E 029°17'0 0.0
2016-Feb-01 09:27N 40°51' E 029°17'0 0.0
2016-Feb-01 08:33N 40°51' E 029°17'0 0.0
2016-Feb-01 07:21N 40°51' E 029°17'0 0.0
2016-Feb-01 04:33N 40°51' E 029°17'0 0.0
2016-Feb-01 03:33N 40°51' E 029°17'0 0.0
2016-Feb-01 02:33N 40°51' E 029°17'0 0.0
2016-Feb-01 01:33N 40°51' E 029°17'0 0.0
2016-Feb-01 00:33N 40°51' E 029°17'0 0.0
2016-Jan-31 23:33N 40°51' E 029°17'0 0.0
2016-Jan-31 22:33N 40°51' E 029°17'0 0.0
2016-Jan-31 21:33N 40°51' E 029°17'0 0.0
2016-Jan-31 20:21N 40°51' E 029°17'0 0.0
2016-Jan-31 19:33N 40°51' E 029°17'0 0.0
2016-Jan-31 17:33N 40°51' E 029°17'0 0.0
2016-Jan-31 16:27N 40°51' E 029°17'0 0.0
2016-Jan-31 15:33N 40°51' E 029°17'0 0.0
2016-Jan-31 14:21N 40°51' E 029°17'0 0.0
2016-Jan-31 13:21N 40°51' E 029°17'0 0.0
2016-Jan-31 12:27N 40°51' E 029°17'0 0.0
2016-Jan-31 11:22N 40°51' E 029°17'0 0.0
2016-Jan-31 10:34N 40°51' E 029°17'0 0.0
2016-Jan-31 09:28N 40°51' E 029°17'0 0.0
2016-Jan-31 08:16N 40°51' E 029°17'0 0.0
2016-Jan-31 07:16N 40°51' E 029°17'0 0.0
2016-Jan-31 06:28N 40°51' E 029°17'0 0.0
2016-Jan-31 05:10N 40°51' E 029°17'0 0.0
2016-Jan-31 04:22N 40°51' E 029°17'0 0.0
2016-Jan-31 03:28N 40°51' E 029°17'0 0.0
2016-Jan-31 02:16N 40°51' E 029°17'0 0.0
2016-Jan-31 01:31N 40°51' E 029°17'0 0.0
2016-Jan-31 00:25N 40°51' E 029°17'0 0.0
2016-Jan-30 23:25N 40°51' E 029°17'0 0.0
2016-Jan-30 22:31N 40°51' E 029°17'0 0.0
2016-Jan-30 21:31N 40°51' E 029°17'0 0.0
2016-Jan-30 20:25N 40°51' E 029°17'0 0.0
2016-Jan-30 19:19N 40°51' E 029°17'0 0.0
2016-Jan-30 18:31N 40°51' E 029°17'0 0.0
2016-Jan-30 17:31N 40°51' E 029°17'0 0.0
2016-Jan-30 16:31N 40°51' E 029°17'0 0.0
2016-Jan-30 15:31N 40°51' E 029°17'0 0.0
2016-Jan-30 14:31N 40°51' E 029°17'0 0.0
2016-Jan-30 13:25N 40°51' E 029°17'0 0.0
2016-Jan-30 12:31N 40°51' E 029°17'0 0.0
2016-Jan-30 11:33N 40°51' E 029°17'0 0.0
2016-Jan-30 10:28N 40°51' E 029°17'0 0.0
2016-Jan-30 09:28N 40°51' E 029°17'0 0.0
2016-Jan-30 08:28N 40°51' E 029°17'0 0.0
2016-Jan-30 07:28N 40°51' E 029°17'0 0.0
2016-Jan-30 06:28N 40°51' E 029°17'0 0.0
2016-Jan-30 05:31N 40°51' E 029°17'0 0.0
2016-Jan-30 04:31N 40°51' E 029°17'0 0.0
2016-Jan-30 03:31N 40°51' E 029°17'0 0.0
2016-Jan-30 02:31N 40°51' E 029°17'0 0.0
2016-Jan-30 01:31N 40°51' E 029°17'0 0.0
2016-Jan-30 00:31N 40°51' E 029°17'3 3.4
2016-Jan-29 23:33N 40°48' E 029°15'8 8.3
2016-Jan-29 22:33N 40°44' E 029°24'3 2.8
2016-Jan-29 21:32N 40°43' E 029°27'4 4.2
2016-Jan-29 20:33N 40°43' E 029°22'4 3.8
2016-Jan-29 19:33N 40°44' E 029°17'5 4.4
2016-Jan-29 18:32N 40°46' E 029°12'4 4.2
2016-Jan-29 17:31N 40°48' E 029°06'4 4.2
2016-Jan-29 16:33N 40°51' E 029°03'5 4.6
2016-Jan-29 15:31N 40°55' E 028°60'3 0.3
2016-Jan-29 02:32N 40°58' E 028°60'2 1.8
2016-Jan-29 01:33N 40°57' E 028°60'2 1.8
2016-Jan-29 00:32N 40°55' E 029°00'3 3.5
2016-Jan-28 23:33N 40°52' E 029°02'4 3.9
2016-Jan-28 22:33N 40°49' E 029°06'4 4.5
2016-Jan-28 21:33N 40°47' E 029°11'5 4.5
2016-Jan-28 20:33N 40°45' E 029°17'4 4.4
2016-Jan-28 19:32N 40°44' E 029°22'4 4.1
2016-Jan-28 18:33N 40°43' E 029°27'1 0.5
2016-Jan-28 17:32N 40°43' E 029°28'0 0.0
2016-Jan-28 16:32N 40°43' E 029°28'6 6.2
2016-Jan-28 15:32N 40°45' E 029°20'6 6.6
2016-Jan-28 14:33N 40°50' E 029°15'2 1.7
2016-Jan-28 13:29N 40°51' E 029°17'0 0.0
2016-Jan-28 12:29N 40°51' E 029°17'0 0.0
2016-Jan-28 11:29N 40°51' E 029°17'0 0.0
2016-Jan-28 10:29N 40°51' E 029°17'0 0.0
2016-Jan-28 09:23N 40°51' E 029°17'0 0.0
2016-Jan-28 08:17N 40°51' E 029°17'0 0.0
2016-Jan-26 16:06N 40°51' E 029°17'0 0.0
2016-Jan-26 15:29N 40°51' E 029°17'0 0.0
2016-Jan-26 14:30N 40°51' E 029°17'0 0.0
2016-Jan-26 13:30N 40°51' E 029°17'0 0.0
2016-Jan-26 12:30N 40°51' E 029°17'0 0.0
2016-Jan-26 11:30N 40°51' E 029°17'0 0.0
2016-Jan-26 10:30N 40°51' E 029°17'0 0.0
2016-Jan-26 09:30N 40°51' E 029°17'0 0.0
2016-Jan-26 08:24N 40°51' E 029°17'0 0.0
2016-Jan-26 07:18N 40°51' E 029°17'0 0.0
2016-Jan-26 06:30N 40°51' E 029°17'0 0.0
2016-Jan-26 05:24N 40°51' E 029°17'0 0.0
2016-Jan-26 04:24N 40°51' E 029°17'0 0.0
2016-Jan-26 03:30N 40°51' E 029°17'0 0.0
2016-Jan-26 02:30N 40°51' E 029°17'0 0.0
2016-Jan-26 01:30N 40°51' E 029°17'0 0.0
2016-Jan-26 00:24N 40°51' E 029°17'0 0.0
2016-Jan-25 23:18N 40°51' E 029°17'0 0.0
2016-Jan-25 22:30N 40°51' E 029°17'0 0.0
2016-Jan-25 21:18N 40°51' E 029°17'0 0.0
2016-Jan-25 19:30N 40°51' E 029°17'0 0.0
2016-Jan-25 18:24N 40°51' E 029°17'0 0.0
2016-Jan-25 17:24N 40°51' E 029°17'0 0.0
2016-Jan-25 16:30N 40°51' E 029°17'0 0.0
2016-Jan-25 15:30N 40°51' E 029°17'0 0.0
2016-Jan-25 14:30N 40°51' E 029°17'0 0.0
2016-Jan-25 13:30N 40°51' E 029°17'0 0.0
2016-Jan-25 12:30N 40°51' E 029°17'0 0.0
2016-Jan-25 11:24N 40°51' E 029°17'0 0.0
2016-Jan-25 10:12N 40°51' E 029°17'0 0.0
2016-Jan-25 09:30N 40°51' E 029°17'0 0.0
2016-Jan-25 08:30N 40°51' E 029°17'0 0.0
2016-Jan-25 06:12N 40°51' E 029°17'0 0.0
2016-Jan-25 04:12N 40°51' E 029°17'0 0.0
2016-Jan-25 03:24N 40°51' E 029°17'0 0.0
2016-Jan-25 02:18N 40°51' E 029°17'0 0.0
2016-Jan-25 00:12N 40°51' E 029°17'0 0.0
2016-Jan-24 22:18N 40°51' E 029°17'0 0.0
2016-Jan-24 21:30N 40°51' E 029°17'0 0.0
2016-Jan-24 20:06N 40°51' E 029°17'0 0.0
2016-Jan-24 18:30N 40°51' E 029°17'0 0.0
2016-Jan-24 17:24N 40°51' E 029°17'0 0.0
2016-Jan-24 16:30N 40°51' E 029°17'  

Dump ship's entire track history